createdAt,value
2023-03-30T00:01:24.286Z,34.77
2023-03-30T00:02:55.969Z,34.19
2023-03-30T00:04:27.919Z,34.28
2023-03-30T00:06:03.039Z,34.45
2023-03-30T00:07:39.364Z,35.26
2023-03-30T00:09:17.265Z,34.80
2023-03-30T00:10:48.884Z,34.82
2023-03-30T00:12:20.891Z,34.98
2023-03-30T00:13:53.177Z,35.13
2023-03-30T00:15:24.995Z,34.76
2023-03-30T00:16:57.158Z,35.61
2023-03-30T00:18:34.412Z,35.51
2023-03-30T00:20:14.741Z,35.60
2023-03-30T00:21:46.302Z,35.47
2023-03-30T00:23:18.276Z,34.95
2023-03-30T00:24:51.834Z,35.19
2023-03-30T00:26:23.514Z,35.78
2023-03-30T00:27:56.837Z,35.62
2023-03-30T00:29:28.806Z,35.52
2023-03-30T00:31:00.558Z,35.88
2023-03-30T00:32:32.600Z,35.27
2023-03-30T00:34:04.767Z,35.81
2023-03-30T00:35:36.819Z,35.13
2023-03-30T00:37:08.430Z,35.57
2023-03-30T00:38:40.892Z,35.49
2023-03-30T00:40:16.780Z,35.09
2023-03-30T00:41:48.675Z,35.37
2023-03-30T00:43:20.436Z,35.70
2023-03-30T00:45:11.064Z,35.09
2023-03-30T00:46:42.789Z,35.28
2023-03-30T00:48:15.482Z,35.65
2023-03-30T00:49:47.268Z,35.83
2023-03-30T00:51:19.057Z,36.11
2023-03-30T00:52:52.414Z,36.11
2023-03-30T00:54:24.587Z,35.68
2023-03-30T00:55:56.530Z,35.64
2023-03-30T00:57:28.407Z,35.43
2023-03-30T00:59:00.419Z,35.55
2023-03-30T01:00:33.231Z,35.92
2023-03-30T01:02:05.443Z,35.54
2023-03-30T01:03:37.908Z,36.17
2023-03-30T01:05:10.727Z,35.85
2023-03-30T01:06:43.547Z,35.56
2023-03-30T01:08:16.897Z,35.80
2023-03-30T01:09:48.456Z,36.00
2023-03-30T01:11:20.134Z,35.90
2023-03-30T01:12:51.736Z,36.00
2023-03-30T01:14:25.102Z,36.22
2023-03-30T01:16:11.571Z,36.03
2023-03-30T01:18:00.009Z,36.20
2023-03-30T01:19:43.824Z,35.82
2023-03-30T01:21:34.124Z,36.29
2023-03-30T01:23:27.667Z,35.94
2023-03-30T01:25:04.380Z,36.44
2023-03-30T01:26:46.541Z,36.32
2023-03-30T01:28:23.796Z,36.02
2023-03-30T01:30:15.040Z,35.88
2023-03-30T01:31:52.408Z,35.92
2023-03-30T01:33:23.994Z,36.74
2023-03-30T01:35:07.773Z,35.99
2023-03-30T01:36:39.391Z,35.94
2023-03-30T01:38:33.889Z,36.00
2023-03-30T01:40:13.568Z,36.32
2023-03-30T01:42:03.642Z,36.16
2023-03-30T01:43:35.141Z,36.92
2023-03-30T01:45:20.285Z,36.93
2023-03-30T01:46:53.093Z,36.32
2023-03-30T01:48:53.729Z,36.09
2023-03-30T01:50:27.579Z,36.91
2023-03-30T01:52:11.353Z,36.78
2023-03-30T01:53:46.976Z,37.00
2023-03-30T01:55:23.053Z,36.59
2023-03-30T01:56:55.284Z,36.65
2023-03-30T01:58:31.846Z,37.23
2023-03-30T02:00:14.434Z,36.98
2023-03-30T02:01:50.565Z,37.06
2023-03-30T02:03:26.730Z,37.46
2023-03-30T02:04:59.461Z,37.19
2023-03-30T02:06:39.028Z,37.41
2023-03-30T02:08:21.201Z,37.28
2023-03-30T02:09:53.790Z,37.13
2023-03-30T02:11:25.496Z,36.78
2023-03-30T02:12:57.400Z,37.17
2023-03-30T02:14:31.195Z,37.63
2023-03-30T02:16:09.017Z,37.32
2023-03-30T02:17:44.625Z,37.38
2023-03-30T02:19:17.131Z,37.06
2023-03-30T02:20:49.726Z,36.93
2023-03-30T02:22:24.041Z,37.30
2023-03-30T02:23:56.058Z,37.45
2023-03-30T02:25:30.048Z,37.27
2023-03-30T02:27:04.296Z,37.01
2023-03-30T02:28:35.834Z,37.07
2023-03-30T02:30:10.205Z,36.91
2023-03-30T02:31:42.282Z,37.52
2023-03-30T02:33:30.648Z,37.03
2023-03-30T02:35:22.818Z,37.11
2023-03-30T02:37:27.132Z,36.93
2023-03-30T02:39:14.696Z,37.34
2023-03-30T02:40:55.654Z,38.02
2023-03-30T02:42:27.265Z,38.04
2023-03-30T02:44:01.969Z,37.53
2023-03-30T02:45:37.787Z,37.32
2023-03-30T02:47:12.452Z,37.97
2023-03-30T02:48:56.813Z,37.84
2023-03-30T02:50:34.305Z,37.49
2023-03-30T02:52:24.708Z,37.46
2023-03-30T02:53:59.272Z,37.21
2023-03-30T02:55:34.670Z,37.95
2023-03-30T02:57:06.948Z,37.42
2023-03-30T02:58:44.648Z,37.48
2023-03-30T03:00:19.931Z,37.66
2023-03-30T03:01:51.508Z,38.19
2023-03-30T03:03:36.031Z,37.67
2023-03-30T03:05:08.367Z,37.64
2023-03-30T03:06:40.013Z,37.79
2023-03-30T03:08:17.847Z,37.81
2023-03-30T03:09:49.348Z,38.07
2023-03-30T03:11:29.899Z,37.92
2023-03-30T03:13:04.479Z,37.52
2023-03-30T03:14:40.055Z,37.85
2023-03-30T03:16:12.528Z,38.50
2023-03-30T03:17:45.449Z,37.65
2023-03-30T03:19:20.153Z,38.01
2023-03-30T03:21:01.189Z,37.73
2023-03-30T03:22:32.944Z,38.59
2023-03-30T03:24:14.212Z,38.00
2023-03-30T03:25:45.854Z,38.04
2023-03-30T03:27:18.266Z,38.52
2023-03-30T03:28:55.900Z,38.61
2023-03-30T03:32:14.569Z,38.98
2023-03-30T03:33:46.449Z,38.99
2023-03-30T03:35:18.333Z,38.66
2023-03-30T03:36:54.242Z,38.29
2023-03-30T03:38:26.362Z,38.39
2023-03-30T03:39:57.933Z,38.68
2023-03-30T03:41:32.421Z,38.68
2023-03-30T03:43:10.198Z,39.06
2023-03-30T03:44:42.059Z,39.00
2023-03-30T03:46:13.844Z,39.24
2023-03-30T03:47:45.883Z,38.83
2023-03-30T03:49:17.645Z,39.22
2023-03-30T03:50:56.097Z,39.41
2023-03-30T03:52:36.973Z,39.01
2023-03-30T03:54:08.725Z,38.51
2023-03-30T03:55:41.731Z,38.88
2023-03-30T03:57:16.008Z,38.53
2023-03-30T03:58:47.569Z,38.93
2023-03-30T04:00:23.451Z,39.40
2023-03-30T04:01:59.828Z,38.63
2023-03-30T04:03:31.617Z,39.17
2023-03-30T04:05:03.244Z,39.07
2023-03-30T04:06:34.755Z,39.56
2023-03-30T04:08:12.327Z,39.58
2023-03-30T04:09:43.811Z,39.04
2023-03-30T04:11:15.578Z,38.81
2023-03-30T04:12:50.276Z,38.90
2023-03-30T04:14:22.007Z,39.20
2023-03-30T04:16:01.411Z,39.69
2023-03-30T04:17:37.442Z,39.63
2023-03-30T04:19:09.251Z,40.19
2023-03-30T04:20:40.746Z,39.90
2023-03-30T04:22:13.825Z,40.27
2023-03-30T04:23:49.097Z,40.38
2023-03-30T04:25:22.746Z,40.14
2023-03-30T04:26:54.835Z,40.54
2023-03-30T04:28:59.392Z,39.93
2023-03-30T04:32:41.700Z,40.24
2023-03-30T04:34:13.884Z,40.38
2023-03-30T04:36:41.958Z,40.59
2023-03-30T04:42:59.482Z,40.80
2023-03-30T04:45:03.476Z,40.90
2023-03-30T04:50:44.157Z,40.69
2023-03-30T04:56:58.699Z,40.63
2023-03-30T05:00:35.139Z,40.61
2023-03-30T05:02:20.799Z,41.13
2023-03-30T05:07:52.200Z,41.03
2023-03-30T05:10:08.280Z,40.47
2023-03-30T05:11:56.789Z,40.69
2023-03-30T05:13:40.720Z,40.70
2023-03-30T05:15:21.724Z,41.13
2023-03-30T05:18:53.883Z,40.68
2023-03-30T05:20:28.957Z,40.73
2023-03-30T05:22:03.540Z,41.10
2023-03-30T05:23:35.226Z,40.47
2023-03-30T05:25:10.535Z,40.88
2023-03-30T05:26:48.459Z,40.84
2023-03-30T05:28:20.299Z,41.26
2023-03-30T05:30:14.103Z,41.27
2023-03-30T05:31:48.195Z,40.69
2023-03-30T05:33:20.129Z,41.22
2023-03-30T05:34:54.503Z,40.93
2023-03-30T05:36:29.067Z,41.63
2023-03-30T05:38:00.971Z,41.29
2023-03-30T05:39:36.457Z,41.54
2023-03-30T05:41:07.951Z,41.54
2023-03-30T05:42:45.618Z,41.53
2023-03-30T05:46:04.032Z,41.61
2023-03-30T05:47:45.888Z,41.55
2023-03-30T05:49:17.459Z,41.15
2023-03-30T05:50:53.607Z,40.82
2023-03-30T05:52:31.932Z,40.86
2023-03-30T05:56:00.059Z,41.15
2023-03-30T05:57:32.372Z,40.84
2023-03-30T05:59:08.330Z,41.41
2023-03-30T06:00:42.786Z,41.24
2023-03-30T06:02:15.253Z,40.75
2023-03-30T06:03:47.403Z,41.53
2023-03-30T06:05:19.469Z,41.44
2023-03-30T06:06:51.722Z,41.02
2023-03-30T06:08:23.565Z,40.98
2023-03-30T06:09:59.740Z,40.55
2023-03-30T06:11:31.902Z,41.26
2023-03-30T06:13:03.864Z,41.01
2023-03-30T06:14:35.430Z,40.88
2023-03-30T06:16:07.851Z,41.28
2023-03-30T06:17:39.462Z,41.67
2023-03-30T06:19:11.166Z,41.14
2023-03-30T06:20:42.820Z,41.33
2023-03-30T06:22:14.524Z,41.13
2023-03-30T06:23:46.425Z,41.60
2023-03-30T06:25:20.522Z,41.73
2023-03-30T06:26:52.452Z,41.94
2023-03-30T06:28:24.256Z,41.31
2023-03-30T06:29:56.451Z,41.81
2023-03-30T06:31:28.092Z,41.88
2023-03-30T06:33:00.595Z,41.32
2023-03-30T06:34:32.424Z,41.51
2023-03-30T06:36:04.227Z,41.31
2023-03-30T06:37:38.623Z,42.01
2023-03-30T06:39:10.944Z,42.01
2023-03-30T06:40:42.456Z,41.63
2023-03-30T06:42:13.973Z,41.98
2023-03-30T06:43:45.708Z,41.79
2023-03-30T06:45:17.340Z,41.78
2023-03-30T06:46:48.931Z,41.89
2023-03-30T06:48:20.950Z,41.54
2023-03-30T06:49:52.791Z,41.35
2023-03-30T06:51:24.736Z,41.83
2023-03-30T06:52:56.686Z,41.41
2023-03-30T06:54:28.346Z,41.54
2023-03-30T06:56:06.006Z,41.37
2023-03-30T06:57:37.645Z,41.50
2023-03-30T06:59:18.035Z,41.53
2023-03-30T07:02:37.980Z,41.54
2023-03-30T07:04:09.796Z,41.43
2023-03-30T07:07:32.751Z,41.47
2023-03-30T07:09:05.900Z,41.64
2023-03-30T07:10:38.763Z,41.28
2023-03-30T07:12:10.746Z,41.17
2023-03-30T07:13:42.274Z,41.05
2023-03-30T07:15:14.235Z,41.33
2023-03-30T07:16:46.010Z,41.22
2023-03-30T07:18:17.728Z,40.70
2023-03-30T07:19:49.705Z,40.97
2023-03-30T07:21:21.305Z,41.03
2023-03-30T07:22:52.940Z,41.21
2023-03-30T07:24:24.503Z,40.29
2023-03-30T07:25:56.590Z,40.48
2023-03-30T07:27:28.140Z,41.05
2023-03-30T07:28:59.777Z,41.34
2023-03-30T07:30:31.595Z,41.13
2023-03-30T07:32:03.447Z,41.00
2023-03-30T07:33:35.473Z,41.30
2023-03-30T07:35:08.961Z,40.37
2023-03-30T07:36:40.673Z,40.79
2023-03-30T07:38:13.111Z,40.54
2023-03-30T07:39:44.797Z,40.61
2023-03-30T07:41:16.720Z,40.41
2023-03-30T07:42:48.310Z,40.87
2023-03-30T07:44:20.011Z,40.62
2023-03-30T07:45:51.737Z,40.71
2023-03-30T07:47:23.802Z,40.15
2023-03-30T07:48:55.349Z,39.91
2023-03-30T07:50:26.953Z,39.99
2023-03-30T07:51:58.488Z,39.95
2023-03-30T07:53:30.013Z,40.29
2023-03-30T07:55:01.708Z,39.73
2023-03-30T07:56:33.751Z,39.77
2023-03-30T07:58:05.463Z,39.80
2023-03-30T07:59:37.178Z,39.90
2023-03-30T08:01:08.929Z,39.73
2023-03-30T08:02:40.798Z,39.58
2023-03-30T08:04:13.663Z,39.59
2023-03-30T08:05:51.988Z,40.07
2023-03-30T08:07:23.562Z,38.83
2023-03-30T08:08:55.280Z,39.56
2023-03-30T08:10:27.428Z,40.06
2023-03-30T08:11:59.146Z,39.78
2023-03-30T08:13:32.976Z,39.84
2023-03-30T08:15:04.883Z,39.49
2023-03-30T08:16:36.575Z,38.93
2023-03-30T08:18:08.546Z,38.79
2023-03-30T08:19:40.291Z,39.14
2023-03-30T08:21:12.295Z,38.53
2023-03-30T08:22:43.870Z,38.98
2023-03-30T08:24:16.096Z,38.82
2023-03-30T08:25:51.454Z,38.83
2023-03-30T08:27:23.076Z,38.45
2023-03-30T08:28:55.075Z,39.06
2023-03-30T08:30:26.621Z,38.88
2023-03-30T08:31:58.242Z,38.77
2023-03-30T08:33:30.096Z,38.52
2023-03-30T08:35:01.668Z,38.75
2023-03-30T08:36:33.157Z,38.53
2023-03-30T08:38:04.769Z,38.40
2023-03-30T08:39:37.602Z,38.08
2023-03-30T08:41:28.134Z,38.00
2023-03-30T08:43:02.852Z,38.14
2023-03-30T08:44:34.413Z,38.28
2023-03-30T08:46:06.174Z,37.78
2023-03-30T08:47:38.540Z,37.82
2023-03-30T08:49:12.999Z,37.70
2023-03-30T08:50:47.787Z,37.92
2023-03-30T08:52:21.943Z,37.88
2023-03-30T08:54:01.713Z,38.14
2023-03-30T08:55:40.483Z,37.89
2023-03-30T08:57:24.299Z,37.69
2023-03-30T08:58:56.021Z,37.90
2023-03-30T09:00:37.220Z,37.95
2023-03-30T09:02:16.702Z,37.87
2023-03-30T09:03:54.075Z,37.79
2023-03-30T09:05:26.873Z,37.71
2023-03-30T09:07:07.202Z,37.78
2023-03-30T09:08:48.073Z,37.71
2023-03-30T09:10:21.936Z,38.04
2023-03-30T09:12:10.593Z,38.17
2023-03-30T09:13:49.866Z,37.89
2023-03-30T09:15:27.655Z,37.85
2023-03-30T09:17:23.020Z,37.72
2023-03-30T09:18:57.800Z,37.56
2023-03-30T09:20:32.989Z,37.57
2023-03-30T09:22:05.945Z,37.60
2023-03-30T09:23:37.572Z,37.70
2023-03-30T09:25:32.700Z,37.55
2023-03-30T09:27:10.365Z,37.25
2023-03-30T09:28:57.814Z,37.40
2023-03-30T09:30:32.171Z,37.39
2023-03-30T09:32:22.433Z,37.46
2023-03-30T09:33:55.301Z,37.36
2023-03-30T09:35:29.483Z,37.31
2023-03-30T09:37:04.817Z,37.19
2023-03-30T09:38:42.027Z,36.62
2023-03-30T09:40:16.704Z,36.88
2023-03-30T09:41:51.840Z,36.88
2023-03-30T09:43:35.044Z,36.59
2023-03-30T09:45:22.841Z,36.78
2023-03-30T09:46:57.379Z,36.55
2023-03-30T09:48:29.143Z,36.52
2023-03-30T09:50:16.743Z,36.77
2023-03-30T09:52:14.179Z,36.65
2023-03-30T09:53:46.241Z,36.33
2023-03-30T09:55:28.613Z,36.71
2023-03-30T09:57:00.738Z,36.36
2023-03-30T09:58:33.249Z,36.43
2023-03-30T10:00:05.939Z,36.06
2023-03-30T10:01:38.656Z,36.50
2023-03-30T10:03:18.836Z,36.03
2023-03-30T10:04:55.270Z,35.89
2023-03-30T10:06:28.243Z,35.82
2023-03-30T10:08:00.348Z,35.88
2023-03-30T10:09:32.006Z,35.67
2023-03-30T10:11:06.345Z,35.98
2023-03-30T10:12:37.942Z,35.85
2023-03-30T10:14:21.216Z,35.71
2023-03-30T10:15:53.190Z,36.04
2023-03-30T10:17:25.417Z,35.83
2023-03-30T10:19:03.016Z,35.64
2023-03-30T10:20:37.574Z,35.72
2023-03-30T10:22:14.262Z,35.49
2023-03-30T10:23:46.722Z,35.61
2023-03-30T10:25:19.362Z,35.68
2023-03-30T10:27:09.918Z,35.92
2023-03-30T10:28:42.446Z,35.33
2023-03-30T10:30:17.704Z,35.35
2023-03-30T10:31:50.446Z,35.23
2023-03-30T10:33:21.963Z,34.75
2023-03-30T10:34:54.652Z,35.02
2023-03-30T10:36:29.578Z,35.26
2023-03-30T10:38:01.508Z,35.24
2023-03-30T10:39:34.205Z,34.88
2023-03-30T10:41:12.871Z,35.11
2023-03-30T10:42:44.731Z,34.94
2023-03-30T10:44:26.407Z,34.92
2023-03-30T10:46:06.341Z,35.37
2023-03-30T10:47:54.050Z,35.21
2023-03-30T10:49:25.782Z,35.27
2023-03-30T10:51:17.942Z,35.12
2023-03-30T10:52:58.381Z,34.89
2023-03-30T10:54:35.788Z,35.26
2023-03-30T10:56:07.448Z,35.29
2023-03-30T10:57:45.193Z,35.39
2023-03-30T10:59:35.697Z,34.78
2023-03-30T11:01:10.775Z,34.72
2023-03-30T11:02:42.398Z,34.38
2023-03-30T11:04:34.375Z,34.47
2023-03-30T11:06:06.513Z,34.00
2023-03-30T11:07:47.481Z,34.05
2023-03-30T11:09:20.302Z,33.99
2023-03-30T11:10:53.297Z,33.98
2023-03-30T11:12:25.881Z,34.26
2023-03-30T11:14:02.345Z,34.04
2023-03-30T11:15:36.225Z,33.84
2023-03-30T11:17:09.238Z,34.27
2023-03-30T11:19:00.531Z,34.22
2023-03-30T11:20:33.251Z,34.20
2023-03-30T11:22:19.926Z,34.01
2023-03-30T11:23:55.632Z,33.98
2023-03-30T11:25:28.531Z,33.93
2023-03-30T11:27:18.656Z,33.85
2023-03-30T11:29:02.725Z,33.71
2023-03-30T11:30:34.349Z,33.39
2023-03-30T11:32:06.081Z,33.28
2023-03-30T11:33:47.565Z,33.32
2023-03-30T11:35:19.220Z,33.13
2023-03-30T11:37:03.256Z,33.01
2023-03-30T11:38:44.575Z,32.90
2023-03-30T11:40:22.322Z,32.89
2023-03-30T11:42:04.168Z,32.78
2023-03-30T11:43:35.743Z,32.81
2023-03-30T11:45:30.620Z,32.75
2023-03-30T11:47:20.736Z,32.87
2023-03-30T11:49:11.496Z,32.80
2023-03-30T11:50:45.772Z,32.66
2023-03-30T11:52:17.446Z,32.57
2023-03-30T11:53:52.443Z,32.31
2023-03-30T11:55:47.617Z,32.39
2023-03-30T11:57:19.157Z,32.35
2023-03-30T11:59:06.506Z,32.23
2023-03-30T12:01:04.684Z,32.22
2023-03-30T12:02:42.375Z,32.27
2023-03-30T12:04:17.058Z,32.18
2023-03-30T12:06:07.306Z,32.13
2023-03-30T12:07:40.751Z,32.04
2023-03-30T12:09:12.379Z,32.04
2023-03-30T12:10:44.926Z,32.10
2023-03-30T12:12:22.492Z,32.20
2023-03-30T12:13:54.121Z,32.12
2023-03-30T12:15:46.624Z,32.24
2023-03-30T12:17:27.099Z,32.27
2023-03-30T12:19:03.821Z,32.28
2023-03-30T12:21:04.577Z,32.39
2023-03-30T12:22:48.185Z,32.34
2023-03-30T12:24:38.666Z,32.24
2023-03-30T12:26:10.466Z,32.08
2023-03-30T12:28:08.661Z,31.94
2023-03-30T12:30:01.661Z,32.01
2023-03-30T12:31:53.318Z,31.68
2023-03-30T12:33:28.938Z,31.58
2023-03-30T12:35:00.454Z,31.71
2023-03-30T12:36:38.958Z,31.69
2023-03-30T12:38:17.764Z,31.88
2023-03-30T12:39:59.169Z,31.91
2023-03-30T12:41:38.524Z,31.75
2023-03-30T12:43:20.842Z,31.73
2023-03-30T12:45:05.785Z,31.60
2023-03-30T12:46:58.675Z,31.72
2023-03-30T12:48:33.362Z,31.63
2023-03-30T12:50:14.849Z,31.68
2023-03-30T12:51:50.156Z,31.54
2023-03-30T12:53:24.505Z,31.51
2023-03-30T12:54:56.197Z,31.47
2023-03-30T12:56:37.316Z,31.10
2023-03-30T12:58:15.658Z,30.97
2023-03-30T13:00:09.389Z,31.13
2023-03-30T13:01:50.142Z,31.16
2023-03-30T13:03:21.627Z,30.88
2023-03-30T13:04:53.194Z,31.25
2023-03-30T13:06:34.805Z,31.24
2023-03-30T13:08:10.502Z,31.33
2023-03-30T13:10:11.669Z,30.99
2023-03-30T13:11:44.664Z,31.29
2023-03-30T13:13:17.279Z,30.90
2023-03-30T13:14:48.949Z,30.75
2023-03-30T13:16:39.236Z,30.70
2023-03-30T13:18:13.797Z,30.59
2023-03-30T13:20:12.705Z,30.68
2023-03-30T13:21:55.063Z,30.34
2023-03-30T13:23:27.596Z,30.40
2023-03-30T13:25:00.408Z,30.39
2023-03-30T13:26:42.163Z,30.41
2023-03-30T13:28:34.040Z,30.20
2023-03-30T13:30:08.354Z,30.31
2023-03-30T13:31:43.169Z,30.27
2023-03-30T13:33:15.758Z,30.33
2023-03-30T13:34:58.429Z,30.36
2023-03-30T13:36:39.719Z,30.41
2023-03-30T13:38:13.778Z,30.14
2023-03-30T13:39:52.881Z,30.19
2023-03-30T13:41:24.569Z,30.20
2023-03-30T13:43:15.317Z,30.50
2023-03-30T13:44:53.555Z,30.17
2023-03-30T13:46:41.867Z,30.05
2023-03-30T13:48:32.320Z,30.09
2023-03-30T13:50:07.081Z,29.80
2023-03-30T13:51:39.197Z,30.08
2023-03-30T13:53:11.115Z,30.19
2023-03-30T13:54:42.978Z,30.33
2023-03-30T13:56:14.527Z,30.24
2023-03-30T13:57:46.277Z,30.03
2023-03-30T13:59:20.666Z,30.22
2023-03-30T14:00:53.043Z,30.18
2023-03-30T14:02:25.202Z,30.12
2023-03-30T14:03:57.467Z,30.09
2023-03-30T14:05:29.077Z,29.91
2023-03-30T14:07:14.220Z,29.90
2023-03-30T14:08:47.984Z,29.87
2023-03-30T14:10:20.446Z,29.92
2023-03-30T14:11:52.975Z,29.91
2023-03-30T14:13:24.558Z,29.59
2023-03-30T14:14:56.275Z,29.85
2023-03-30T14:16:28.785Z,29.73
2023-03-30T14:18:01.033Z,29.55
2023-03-30T14:19:33.711Z,29.61
2023-03-30T14:21:05.816Z,29.72
2023-03-30T14:22:40.726Z,29.54
2023-03-30T14:24:18.964Z,29.58
2023-03-30T14:25:53.660Z,29.58
2023-03-30T14:27:25.655Z,29.56
2023-03-30T14:28:57.722Z,29.64
2023-03-30T14:30:29.698Z,29.79
2023-03-30T14:32:09.184Z,29.50
2023-03-30T14:33:41.691Z,29.48
2023-03-30T14:35:16.939Z,29.52
2023-03-30T14:36:48.698Z,29.64
2023-03-30T14:38:26.872Z,29.41
2023-03-30T14:39:58.402Z,29.30
2023-03-30T14:41:31.585Z,29.51
2023-03-30T14:43:03.851Z,29.28
2023-03-30T14:44:36.811Z,29.26
2023-03-30T14:46:09.632Z,29.33
2023-03-30T14:47:41.244Z,29.46
2023-03-30T14:49:18.593Z,29.38
2023-03-30T14:50:50.246Z,29.38
2023-03-30T14:52:22.946Z,29.25
2023-03-30T14:53:54.792Z,29.22
2023-03-30T14:55:26.406Z,29.17
2023-03-30T14:56:59.256Z,29.28
2023-03-30T14:58:31.983Z,29.29
2023-03-30T15:00:21.552Z,29.20
2023-03-30T15:01:53.804Z,29.29
2023-03-30T15:03:33.469Z,29.13
2023-03-30T15:05:05.897Z,29.07
2023-03-30T15:06:38.030Z,29.07
2023-03-30T15:08:28.377Z,29.00
2023-03-30T15:10:00.339Z,29.07
2023-03-30T15:11:32.096Z,29.18
2023-03-30T15:13:03.709Z,28.95
2023-03-30T15:14:36.450Z,29.13
2023-03-30T15:16:07.973Z,29.10
2023-03-30T15:17:39.828Z,29.30
2023-03-30T15:19:12.245Z,29.24
2023-03-30T15:20:43.740Z,29.30
2023-03-30T15:22:27.349Z,29.29
2023-03-30T15:24:00.563Z,29.17
2023-03-30T15:25:32.874Z,29.21
2023-03-30T15:27:06.145Z,29.22
2023-03-30T15:28:58.066Z,29.16
2023-03-30T15:30:31.407Z,29.20
2023-03-30T15:32:06.480Z,29.15
2023-03-30T15:33:45.517Z,29.29
2023-03-30T15:35:23.976Z,29.39
2023-03-30T15:36:56.008Z,29.32
2023-03-30T15:38:35.453Z,29.25
2023-03-30T15:40:30.385Z,29.23
2023-03-30T15:42:05.602Z,29.28
2023-03-30T15:43:37.138Z,29.29
2023-03-30T15:45:12.276Z,29.33
2023-03-30T15:46:43.867Z,29.48
2023-03-30T15:48:17.527Z,29.36
2023-03-30T15:49:49.706Z,29.26
2023-03-30T15:51:29.535Z,29.54
2023-03-30T15:53:01.861Z,29.44
2023-03-30T15:54:39.969Z,29.40
2023-03-30T15:56:12.954Z,29.34
2023-03-30T15:57:46.645Z,29.46
2023-03-30T15:59:18.871Z,29.64
2023-03-30T16:00:50.541Z,29.68
2023-03-30T16:02:23.596Z,29.86
2023-03-30T16:03:56.177Z,29.76
2023-03-30T16:05:32.061Z,29.84
2023-03-30T16:07:08.588Z,29.92
2023-03-30T16:08:43.586Z,29.92
2023-03-30T16:10:16.025Z,30.19
2023-03-30T16:11:47.584Z,30.10
2023-03-30T16:13:19.254Z,30.19
2023-03-30T16:14:50.964Z,30.15
2023-03-30T16:16:22.722Z,30.00
2023-03-30T16:17:54.395Z,30.14
2023-03-30T16:19:26.178Z,30.14
2023-03-30T16:20:57.798Z,30.06
2023-03-30T16:22:29.339Z,30.31
2023-03-30T16:24:00.905Z,30.13
2023-03-30T16:25:44.113Z,30.11
2023-03-30T16:27:16.953Z,30.06
2023-03-30T16:28:49.854Z,30.21
2023-03-30T16:30:22.143Z,30.50
2023-03-30T16:31:53.980Z,30.29
2023-03-30T16:33:25.895Z,30.34
2023-03-30T16:34:57.401Z,30.21
2023-03-30T16:36:29.527Z,30.25
2023-03-30T16:38:01.302Z,30.57
2023-03-30T16:39:33.074Z,30.64
2023-03-30T16:41:04.849Z,30.53
2023-03-30T16:42:36.622Z,30.48
2023-03-30T16:44:08.285Z,30.63
2023-03-30T16:45:39.912Z,30.54
2023-03-30T16:47:12.272Z,30.71
2023-03-30T16:48:43.890Z,30.93
2023-03-30T16:50:22.605Z,30.76
2023-03-30T16:51:57.578Z,30.60
2023-03-30T16:53:29.800Z,30.87
2023-03-30T16:55:01.369Z,30.82
2023-03-30T16:56:33.089Z,30.92
2023-03-30T16:58:05.468Z,30.88
2023-03-30T16:59:37.212Z,31.32
2023-03-30T17:01:13.304Z,30.94
2023-03-30T17:02:44.975Z,31.39
2023-03-30T17:04:17.014Z,31.04
2023-03-30T17:05:48.990Z,31.05
2023-03-30T17:07:20.823Z,31.47
2023-03-30T17:08:52.508Z,31.49
2023-03-30T17:10:25.562Z,31.73
2023-03-30T17:11:57.342Z,31.32
2023-03-30T17:13:29.003Z,31.31
2023-03-30T17:15:01.089Z,31.42
2023-03-30T17:16:34.311Z,31.27
2023-03-30T17:18:09.263Z,31.22
2023-03-30T17:19:40.898Z,31.62
2023-03-30T17:21:16.662Z,31.42
2023-03-30T17:22:48.804Z,31.59
2023-03-30T17:24:20.572Z,31.40
2023-03-30T17:25:52.728Z,31.67
2023-03-30T17:27:25.951Z,31.34
2023-03-30T17:28:57.586Z,31.40
2023-03-30T17:30:30.059Z,31.22
2023-03-30T17:32:01.876Z,31.25
2023-03-30T17:33:34.307Z,31.34
2023-03-30T17:35:06.787Z,31.53
2023-03-30T17:36:38.482Z,31.39
2023-03-30T17:38:10.000Z,31.31
2023-03-30T17:39:41.605Z,31.36
2023-03-30T17:41:13.446Z,31.76
2023-03-30T17:42:45.299Z,31.70
2023-03-30T17:44:16.884Z,31.87
2023-03-30T17:45:48.861Z,31.64
2023-03-30T17:47:20.425Z,31.48
2023-03-30T17:48:52.005Z,31.83
2023-03-30T17:50:23.778Z,31.54
2023-03-30T17:51:55.579Z,31.39
2023-03-30T17:53:27.154Z,31.67
2023-03-30T17:54:58.881Z,31.54
2023-03-30T17:56:31.219Z,31.69
2023-03-30T17:58:02.760Z,32.06
2023-03-30T17:59:34.529Z,32.18
2023-03-30T18:01:07.754Z,32.08
2023-03-30T18:02:40.071Z,32.12
2023-03-30T18:04:11.908Z,32.05
2023-03-30T18:05:46.396Z,31.71
2023-03-30T18:07:17.966Z,32.12
2023-03-30T18:08:49.896Z,31.98
2023-03-30T18:10:24.619Z,32.04
2023-03-30T18:11:56.236Z,32.39
2023-03-30T18:13:28.596Z,32.40
2023-03-30T18:15:00.337Z,32.37
2023-03-30T18:16:32.045Z,31.96
2023-03-30T18:18:04.089Z,32.20
2023-03-30T18:19:36.221Z,32.16
2023-03-30T18:21:09.150Z,32.15
2023-03-30T18:22:41.185Z,32.29
2023-03-30T18:24:12.768Z,32.42
2023-03-30T18:25:44.923Z,32.08
2023-03-30T18:27:16.547Z,32.21
2023-03-30T18:28:48.188Z,32.33
2023-03-30T18:30:21.347Z,31.99
2023-03-30T18:31:53.362Z,32.12
2023-03-30T18:33:25.160Z,32.14
2023-03-30T18:34:57.132Z,32.33
2023-03-30T18:36:28.963Z,32.21
2023-03-30T18:38:00.729Z,32.19
2023-03-30T18:39:32.475Z,32.22
2023-03-30T18:41:04.081Z,32.08
2023-03-30T18:42:35.713Z,32.48
2023-03-30T18:44:08.968Z,32.63
2023-03-30T18:45:41.223Z,32.38
2023-03-30T18:47:13.101Z,32.10
2023-03-30T18:48:45.015Z,32.23
2023-03-30T18:50:20.586Z,32.44
2023-03-30T18:51:52.711Z,32.28
2023-03-30T18:53:25.235Z,32.23
2023-03-30T18:54:57.998Z,32.74
2023-03-30T18:56:29.546Z,32.81
2023-03-30T18:58:02.675Z,32.92
2023-03-30T18:59:34.700Z,32.88
2023-03-30T19:01:06.924Z,32.74
2023-03-30T19:02:38.604Z,32.77
2023-03-30T19:04:10.384Z,32.86
2023-03-30T19:05:42.608Z,32.93
2023-03-30T19:07:14.730Z,33.12
2023-03-30T19:08:46.421Z,32.96
2023-03-30T19:10:18.844Z,33.06
2023-03-30T19:11:50.492Z,32.94
2023-03-30T19:13:23.070Z,33.16
2023-03-30T19:14:54.613Z,33.13
2023-03-30T19:16:26.307Z,33.02
2023-03-30T19:17:57.844Z,32.98
2023-03-30T19:19:30.206Z,32.90
2023-03-30T19:21:01.814Z,33.05
2023-03-30T19:22:33.398Z,32.92
2023-03-30T19:24:05.123Z,32.94
2023-03-30T19:25:37.062Z,32.82
2023-03-30T19:27:08.666Z,33.15
2023-03-30T19:28:40.687Z,33.06
2023-03-30T19:30:13.173Z,33.14
2023-03-30T19:31:45.230Z,33.17
2023-03-30T19:33:17.088Z,33.05
2023-03-30T19:34:48.779Z,33.06
2023-03-30T19:36:23.288Z,32.94
2023-03-30T19:37:57.320Z,32.77
2023-03-30T19:39:28.893Z,32.89
2023-03-30T19:41:01.054Z,33.05
2023-03-30T19:42:33.462Z,33.19
2023-03-30T19:44:05.179Z,32.95
2023-03-30T19:45:36.700Z,33.23
2023-03-30T19:47:09.080Z,33.01
2023-03-30T19:48:41.096Z,33.17
2023-03-30T19:50:15.562Z,33.05
2023-03-30T19:51:48.104Z,33.11
2023-03-30T19:53:19.754Z,32.95
2023-03-30T19:54:51.810Z,33.14
2023-03-30T19:56:25.045Z,33.32
2023-03-30T19:57:56.617Z,33.34
2023-03-30T19:59:28.830Z,33.21
2023-03-30T20:01:04.393Z,33.34
2023-03-30T20:02:36.478Z,33.35
2023-03-30T20:04:08.611Z,33.24
2023-03-30T20:05:40.268Z,33.42
2023-03-30T20:07:12.261Z,33.47
2023-03-30T20:08:44.453Z,33.62
2023-03-30T20:10:19.037Z,33.55
2023-03-30T20:11:51.335Z,33.59
2023-03-30T20:13:24.130Z,33.64
2023-03-30T20:14:56.215Z,33.58
2023-03-30T20:16:30.125Z,33.64
2023-03-30T20:18:01.848Z,33.60
2023-03-30T20:19:33.394Z,33.65
2023-03-30T20:21:05.148Z,33.63
2023-03-30T20:22:37.189Z,33.51
2023-03-30T20:24:08.905Z,33.75
2023-03-30T20:25:45.113Z,33.63
2023-03-30T20:27:17.126Z,33.70
2023-03-30T20:28:48.699Z,33.62
2023-03-30T20:30:20.728Z,33.64
2023-03-30T20:31:52.783Z,33.69
2023-03-30T20:33:24.465Z,33.59
2023-03-30T20:34:56.237Z,33.85
2023-03-30T20:36:28.911Z,33.80
2023-03-30T20:38:02.498Z,33.83
2023-03-30T20:39:35.350Z,33.94
2023-03-30T20:41:07.551Z,34.10
2023-03-30T20:42:44.461Z,33.70
2023-03-30T20:44:18.255Z,33.86
2023-03-30T20:45:56.028Z,33.98
2023-03-30T20:47:30.832Z,33.92
2023-03-30T20:49:02.676Z,34.14
2023-03-30T20:50:34.296Z,34.13
2023-03-30T20:52:05.897Z,34.13
2023-03-30T20:53:37.448Z,34.21
2023-03-30T20:55:09.326Z,34.18
2023-03-30T20:56:41.550Z,34.18
2023-03-30T20:58:13.815Z,34.18
2023-03-30T20:59:48.243Z,34.20
2023-03-30T21:01:25.489Z,34.18